<?xml version='1.0' encoding='UTF-8'?>
<gpx version="1.1" creator="https://www.komoot.de" xmlns="http://www.topografix.com/GPX/1/1" xmlns:xsi="http://www.w3.org/2001/XMLSchema-instance" xsi:schemaLocation="http://www.topografix.com/GPX/1/1 http://www.topografix.com/GPX/1/1/gpx.xsd">
  <metadata>
    <name>MergedHash Hash234</name>
    <author>
      <link href="https://www.komoot.de">
        <text>komoot</text>
        <type>text/html</type>
      </link>
    </author>
  </metadata>
  <trk>
    <name>MergedHash Hash234</name>
    <trkseg>
      <trkpt lat="14.147740" lon="101.402037">
        <ele>65.535131</ele>
        <time>2023-07-23T09:17:01.753Z</time>
      </trkpt>
      <trkpt lat="14.147759" lon="101.402088">
        <ele>65.535131</ele>
        <time>2023-07-23T09:17:03.432Z</time>
      </trkpt>
      <trkpt lat="14.147828" lon="101.402276">
        <ele>65.535131</ele>
        <time>2023-07-23T09:17:09.666Z</time>
      </trkpt>
      <trkpt lat="14.147888" lon="101.402338">
        <ele>65.535131</ele>
        <time>2023-07-23T09:17:13.155Z</time>
      </trkpt>
      <trkpt lat="14.148052" lon="101.402335">
        <ele>65.535131</ele>
        <time>2023-07-23T09:17:18.509Z</time>
      </trkpt>
      <trkpt lat="14.148223" lon="101.402447">
        <ele>65.535131</ele>
        <time>2023-07-23T09:17:26.067Z</time>
      </trkpt>
      <trkpt lat="14.148262" lon="101.402641">
        <ele>65.535131</ele>
        <time>2023-07-23T09:17:32.383Z</time>
      </trkpt>
      <trkpt lat="14.148255" lon="101.402766">
        <ele>65.656818</ele>
        <time>2023-07-23T09:17:36.632Z</time>
      </trkpt>
      <trkpt lat="14.148255" lon="101.402766">
        <ele>65.656818</ele>
        <time>2023-07-23T09:17:36.681Z</time>
      </trkpt>
      <trkpt lat="14.148255" lon="101.402766">
        <ele>65.656818</ele>
        <time>2023-07-23T09:17:36.681Z</time>
      </trkpt>
      <trkpt lat="14.148198" lon="101.402763">
        <ele>65.717936</ele>
        <time>2023-07-23T09:17:39.122Z</time>
      </trkpt>
      <trkpt lat="14.148183" lon="101.402671">
        <ele>65.814807</ele>
        <time>2023-07-23T09:17:42.991Z</time>
      </trkpt>
      <trkpt lat="14.148121" lon="101.402591">
        <ele>65.921148</ele>
        <time>2023-07-23T09:17:47.238Z</time>
      </trkpt>
      <trkpt lat="14.148034" lon="101.402625">
        <ele>66.020777</ele>
        <time>2023-07-23T09:17:51.217Z</time>
      </trkpt>
      <trkpt lat="14.147986" lon="101.402706">
        <ele>66.119348</ele>
        <time>2023-07-23T09:17:55.154Z</time>
      </trkpt>
      <trkpt lat="14.147878" lon="101.402909">
        <ele>66.359779</ele>
        <time>2023-07-23T09:18:04.757Z</time>
      </trkpt>
      <trkpt lat="14.147877" lon="101.403010">
        <ele>66.464660</ele>
        <time>2023-07-23T09:18:08.947Z</time>
      </trkpt>
      <trkpt lat="14.147907" lon="101.403143">
        <ele>66.606450</ele>
        <time>2023-07-23T09:18:14.610Z</time>
      </trkpt>
      <trkpt lat="14.147860" lon="101.403259">
        <ele>66.736993</ele>
        <time>2023-07-23T09:18:19.823Z</time>
      </trkpt>
      <trkpt lat="14.147773" lon="101.403336">
        <ele>66.859762</ele>
        <time>2023-07-23T09:18:24.728Z</time>
      </trkpt>
      <trkpt lat="14.147801" lon="101.403458">
        <ele>66.989943</ele>
        <time>2023-07-23T09:18:29.927Z</time>
      </trkpt>
      <trkpt lat="14.147847" lon="101.403559">
        <ele>67.105811</ele>
        <time>2023-07-23T09:18:34.555Z</time>
      </trkpt>
      <trkpt lat="14.147879" lon="101.403670">
        <ele>67.226056</ele>
        <time>2023-07-23T09:18:39.358Z</time>
      </trkpt>
      <trkpt lat="14.147812" lon="101.403686">
        <ele>67.299701</ele>
        <time>2023-07-23T09:18:42.317Z</time>
      </trkpt>
      <trkpt lat="14.147854" lon="101.403875">
        <ele>67.445421</ele>
        <time>2023-07-23T09:18:46.523Z</time>
      </trkpt>
      <trkpt lat="14.147785" lon="101.404022">
        <ele>67.378214</ele>
        <time>2023-07-23T09:18:50.436Z</time>
      </trkpt>
      <trkpt lat="14.147578" lon="101.404095">
        <ele>67.285372</ele>
        <time>2023-07-23T09:18:55.817Z</time>
      </trkpt>
      <trkpt lat="14.147485" lon="101.404292">
        <ele>67.195206</ele>
        <time>2023-07-23T09:19:01.474Z</time>
      </trkpt>
      <trkpt lat="14.147417" lon="101.404724">
        <ele>67.015105</ele>
        <time>2023-07-23T09:19:10.279Z</time>
      </trkpt>
      <trkpt lat="14.147356" lon="101.405192">
        <ele>66.820784</ele>
        <time>2023-07-23T09:19:18.453Z</time>
      </trkpt>
      <trkpt lat="14.146787" lon="101.405153">
        <ele>65.569857</ele>
        <time>2023-07-23T09:19:27.657Z</time>
      </trkpt>
      <trkpt lat="14.146997" lon="101.406270">
        <ele>61.135651</ele>
        <time>2023-07-23T09:19:43.750Z</time>
      </trkpt>
      <trkpt lat="14.147046" lon="101.406604">
        <ele>59.819183</ele>
        <time>2023-07-23T09:19:48.407Z</time>
      </trkpt>
      <trkpt lat="14.147108" lon="101.406748">
        <ele>59.153693</ele>
        <time>2023-07-23T09:19:50.526Z</time>
      </trkpt>
      <trkpt lat="14.147607" lon="101.407376">
        <ele>55.372418</ele>
        <time>2023-07-23T09:20:01.565Z</time>
      </trkpt>
      <trkpt lat="14.147932" lon="101.407560">
        <ele>53.591723</ele>
        <time>2023-07-23T09:20:06.829Z</time>
      </trkpt>
      <trkpt lat="14.148589" lon="101.407672">
        <ele>50.519687</ele>
        <time>2023-07-23T09:20:16.563Z</time>
      </trkpt>
      <trkpt lat="14.149742" lon="101.407788">
        <ele>46.563902</ele>
        <time>2023-07-23T09:20:33.963Z</time>
      </trkpt>
      <trkpt lat="14.149778" lon="101.408032">
        <ele>45.746706</ele>
        <time>2023-07-23T09:20:37.544Z</time>
      </trkpt>
      <trkpt lat="14.150349" lon="101.408728">
        <ele>44.107506</ele>
        <time>2023-07-23T09:20:51.570Z</time>
      </trkpt>
      <trkpt lat="14.150860" lon="101.409246">
        <ele>43.382341</ele>
        <time>2023-07-23T09:21:04.554Z</time>
      </trkpt>
      <trkpt lat="14.150349" lon="101.408728">
        <ele>43.070439</ele>
        <time>2023-07-23T09:21:21.287Z</time>
      </trkpt>
      <trkpt lat="14.149778" lon="101.408032">
        <ele>43.927474</ele>
        <time>2023-07-23T09:21:43.715Z</time>
      </trkpt>
      <trkpt lat="14.149742" lon="101.407788">
        <ele>44.159487</ele>
        <time>2023-07-23T09:21:50.192Z</time>
      </trkpt>
      <trkpt lat="14.151272" lon="101.407908">
        <ele>46.578590</ele>
        <time>2023-07-23T09:22:47.181Z</time>
      </trkpt>
      <trkpt lat="14.153194" lon="101.408371">
        <ele>52.529783</ele>
        <time>2023-07-23T09:24:18.418Z</time>
      </trkpt>
      <trkpt lat="14.154113" lon="101.408593">
        <ele>56.688082</ele>
        <time>2023-07-23T09:25:13.829Z</time>
      </trkpt>
      <trkpt lat="14.154843" lon="101.409051">
        <ele>61.309786</ele>
        <time>2023-07-23T09:26:07.217Z</time>
      </trkpt>
      <trkpt lat="14.155482" lon="101.409415">
        <ele>64.772168</ele>
        <time>2023-07-23T09:26:48.677Z</time>
      </trkpt>
      <trkpt lat="14.155827" lon="101.409773">
        <ele>66.050858</ele>
        <time>2023-07-23T09:27:07.975Z</time>
      </trkpt>
      <trkpt lat="14.156672" lon="101.410677">
        <ele>68.946759</ele>
        <time>2023-07-23T09:27:44.446Z</time>
      </trkpt>
      <trkpt lat="14.157363" lon="101.411363">
        <ele>68.122516</ele>
        <time>2023-07-23T09:28:01.968Z</time>
      </trkpt>
      <trkpt lat="14.157613" lon="101.411672">
        <ele>67.787176</ele>
        <time>2023-07-23T09:28:08.563Z</time>
      </trkpt>
      <trkpt lat="14.158279" lon="101.412848">
        <ele>66.069775</ele>
        <time>2023-07-23T09:28:30.201Z</time>
      </trkpt>
      <trkpt lat="14.158602" lon="101.413820">
        <ele>64.963327</ele>
        <time>2023-07-23T09:28:47.961Z</time>
      </trkpt>
      <trkpt lat="14.158803" lon="101.413495">
        <ele>65.301274</ele>
        <time>2023-07-23T09:28:59.703Z</time>
      </trkpt>
      <trkpt lat="14.158954" lon="101.413302">
        <ele>65.518687</ele>
        <time>2023-07-23T09:29:07.811Z</time>
      </trkpt>
      <trkpt lat="14.159177" lon="101.413179">
        <ele>65.747337</ele>
        <time>2023-07-23T09:29:16.958Z</time>
      </trkpt>
      <trkpt lat="14.159422" lon="101.413093">
        <ele>65.981333</ele>
        <time>2023-07-23T09:29:26.859Z</time>
      </trkpt>
      <trkpt lat="14.159708" lon="101.413093">
        <ele>66.239920</ele>
        <time>2023-07-23T09:29:38.730Z</time>
      </trkpt>
      <trkpt lat="14.159733" lon="101.413060">
        <ele>66.276634</ele>
        <time>2023-07-23T09:29:40.496Z</time>
      </trkpt>
      <trkpt lat="14.159854" lon="101.412900">
        <ele>66.457091</ele>
        <time>2023-07-23T09:29:49.393Z</time>
      </trkpt>
      <trkpt lat="14.160036" lon="101.412519">
        <ele>67.480345</ele>
        <time>2023-07-23T09:30:08.280Z</time>
      </trkpt>
      <trkpt lat="14.160067" lon="101.412202">
        <ele>68.247936</ele>
        <time>2023-07-23T09:30:22.351Z</time>
      </trkpt>
      <trkpt lat="14.160020" lon="101.411977">
        <ele>68.802443</ele>
        <time>2023-07-23T09:30:32.458Z</time>
      </trkpt>
      <trkpt lat="14.159932" lon="101.411784">
        <ele>69.316264</ele>
        <time>2023-07-23T09:30:41.735Z</time>
      </trkpt>
      <trkpt lat="14.159890" lon="101.411489">
        <ele>70.034599</ele>
        <time>2023-07-23T09:30:54.240Z</time>
      </trkpt>
      <trkpt lat="14.159890" lon="101.411011">
        <ele>71.070172</ele>
        <time>2023-07-23T09:31:14.232Z</time>
      </trkpt>
      <trkpt lat="14.159932" lon="101.410695">
        <ele>71.500963</ele>
        <time>2023-07-23T09:31:27.788Z</time>
      </trkpt>
      <trkpt lat="14.160056" lon="101.410470">
        <ele>71.850513</ele>
        <time>2023-07-23T09:31:38.546Z</time>
      </trkpt>
      <trkpt lat="14.160223" lon="101.410405">
        <ele>72.099152</ele>
        <time>2023-07-23T09:31:46.072Z</time>
      </trkpt>
      <trkpt lat="14.160577" lon="101.410368">
        <ele>72.594784</ele>
        <time>2023-07-23T09:32:00.306Z</time>
      </trkpt>
      <trkpt lat="14.160740" lon="101.410157">
        <ele>72.959157</ele>
        <time>2023-07-23T09:32:09.904Z</time>
      </trkpt>
      <trkpt lat="14.160658" lon="101.410132">
        <ele>73.078266</ele>
        <time>2023-07-23T09:32:12.897Z</time>
      </trkpt>
      <trkpt lat="14.160479" lon="101.409905">
        <ele>73.380858</ele>
        <time>2023-07-23T09:32:22.002Z</time>
      </trkpt>
      <trkpt lat="14.160329" lon="101.409208">
        <ele>72.399219</ele>
        <time>2023-07-23T09:32:42.413Z</time>
      </trkpt>
      <trkpt lat="14.160136" lon="101.408974">
        <ele>71.976834</ele>
        <time>2023-07-23T09:32:50.799Z</time>
      </trkpt>
      <trkpt lat="14.159958" lon="101.408861">
        <ele>71.680444</ele>
        <time>2023-07-23T09:32:56.615Z</time>
      </trkpt>
      <trkpt lat="14.159697" lon="101.408826">
        <ele>71.307229</ele>
        <time>2023-07-23T09:33:03.798Z</time>
      </trkpt>
      <trkpt lat="14.159477" lon="101.408670">
        <ele>70.928647</ele>
        <time>2023-07-23T09:33:10.864Z</time>
      </trkpt>
      <trkpt lat="14.159230" lon="101.408359">
        <ele>70.039982</ele>
        <time>2023-07-23T09:33:21.125Z</time>
      </trkpt>
      <trkpt lat="14.159004" lon="101.408259">
        <ele>69.457521</ele>
        <time>2023-07-23T09:33:27.546Z</time>
      </trkpt>
      <trkpt lat="14.158578" lon="101.408168">
        <ele>68.427132</ele>
        <time>2023-07-23T09:33:38.983Z</time>
      </trkpt>
      <trkpt lat="14.158455" lon="101.407821">
        <ele>67.578655</ele>
        <time>2023-07-23T09:33:48.642Z</time>
      </trkpt>
      <trkpt lat="14.158599" lon="101.407679">
        <ele>67.106777</ele>
        <time>2023-07-23T09:33:54.125Z</time>
      </trkpt>
      <trkpt lat="14.158743" lon="101.407453">
        <ele>66.561419</ele>
        <time>2023-07-23T09:34:01.491Z</time>
      </trkpt>
      <trkpt lat="14.159100" lon="101.407177">
        <ele>66.113852</ele>
        <time>2023-07-23T09:34:14.268Z</time>
      </trkpt>
      <trkpt lat="14.159450" lon="101.407014">
        <ele>65.728620</ele>
        <time>2023-07-23T09:34:25.345Z</time>
      </trkpt>
      <trkpt lat="14.159594" lon="101.406993">
        <ele>65.582732</ele>
        <time>2023-07-23T09:34:29.534Z</time>
      </trkpt>
      <trkpt lat="14.160109" lon="101.407219">
        <ele>65.021296</ele>
        <time>2023-07-23T09:34:45.922Z</time>
      </trkpt>
      <trkpt lat="14.160370" lon="101.407120">
        <ele>64.874139</ele>
        <time>2023-07-23T09:34:54.647Z</time>
      </trkpt>
      <trkpt lat="14.160445" lon="101.406830">
        <ele>65.128616</ele>
        <time>2023-07-23T09:35:04.175Z</time>
      </trkpt>
      <trkpt lat="14.160445" lon="101.406469">
        <ele>65.434696</ele>
        <time>2023-07-23T09:35:16.241Z</time>
      </trkpt>
      <trkpt lat="14.160538" lon="101.406304">
        <ele>65.596513</ele>
        <time>2023-07-23T09:35:22.709Z</time>
      </trkpt>
      <trkpt lat="14.160569" lon="101.406249">
        <ele>65.650453</ele>
        <time>2023-07-23T09:35:24.767Z</time>
      </trkpt>
      <trkpt lat="14.160871" lon="101.406072">
        <ele>65.954196</ele>
        <time>2023-07-23T09:35:37.774Z</time>
      </trkpt>
      <trkpt lat="14.161008" lon="101.405895">
        <ele>66.146220</ele>
        <time>2023-07-23T09:35:46.597Z</time>
      </trkpt>
      <trkpt lat="14.161063" lon="101.405612">
        <ele>66.396322</ele>
        <time>2023-07-23T09:35:57.886Z</time>
      </trkpt>
      <trkpt lat="14.161090" lon="101.405258">
        <ele>66.998471</ele>
        <time>2023-07-23T09:36:12.493Z</time>
      </trkpt>
      <trkpt lat="14.161035" lon="101.404982">
        <ele>67.476280</ele>
        <time>2023-07-23T09:36:24.470Z</time>
      </trkpt>
      <trkpt lat="14.160960" lon="101.404839">
        <ele>67.751973</ele>
        <time>2023-07-23T09:36:31.888Z</time>
      </trkpt>
      <trkpt lat="14.161022" lon="101.404633">
        <ele>68.117739</ele>
        <time>2023-07-23T09:36:41.216Z</time>
      </trkpt>
      <trkpt lat="14.160878" lon="101.404485">
        <ele>68.473281</ele>
        <time>2023-07-23T09:36:49.974Z</time>
      </trkpt>
      <trkpt lat="14.160773" lon="101.404315">
        <ele>68.815078</ele>
        <time>2023-07-23T09:36:57.877Z</time>
      </trkpt>
      <trkpt lat="14.160733" lon="101.404251">
        <ele>68.944199</ele>
        <time>2023-07-23T09:37:00.743Z</time>
      </trkpt>
      <trkpt lat="14.160191" lon="101.404025">
        <ele>69.389905</ele>
        <time>2023-07-23T09:37:21.335Z</time>
      </trkpt>
      <trkpt lat="14.159834" lon="101.403975">
        <ele>69.185472</ele>
        <time>2023-07-23T09:37:32.557Z</time>
      </trkpt>
      <trkpt lat="14.159265" lon="101.403996">
        <ele>68.862396</ele>
        <time>2023-07-23T09:37:49.276Z</time>
      </trkpt>
      <trkpt lat="14.158825" lon="101.403982">
        <ele>68.612607</ele>
        <time>2023-07-23T09:38:01.812Z</time>
      </trkpt>
      <trkpt lat="14.158098" lon="101.403848">
        <ele>68.105164</ele>
        <time>2023-07-23T09:38:23.058Z</time>
      </trkpt>
      <trkpt lat="14.157727" lon="101.403671">
        <ele>67.808550</ele>
        <time>2023-07-23T09:38:35.312Z</time>
      </trkpt>
      <trkpt lat="14.157357" lon="101.403557">
        <ele>67.528344</ele>
        <time>2023-07-23T09:38:47.153Z</time>
      </trkpt>
      <trkpt lat="14.157112" lon="101.403421">
        <ele>67.326451</ele>
        <time>2023-07-23T09:38:55.627Z</time>
      </trkpt>
      <trkpt lat="14.157335" lon="101.403417">
        <ele>67.221568</ele>
        <time>2023-07-23T09:39:02.482Z</time>
      </trkpt>
      <trkpt lat="14.157473" lon="101.403347">
        <ele>67.265633</ele>
        <time>2023-07-23T09:39:07.089Z</time>
      </trkpt>
      <trkpt lat="14.157562" lon="101.403190">
        <ele>67.316159</ele>
        <time>2023-07-23T09:39:12.555Z</time>
      </trkpt>
      <trkpt lat="14.157861" lon="101.402936">
        <ele>67.427152</ele>
        <time>2023-07-23T09:39:24.758Z</time>
      </trkpt>
      <trkpt lat="14.158000" lon="101.402732">
        <ele>67.496423</ele>
        <time>2023-07-23T09:39:32.628Z</time>
      </trkpt>
      <trkpt lat="14.158141" lon="101.401965">
        <ele>67.713311</ele>
        <time>2023-07-23T09:39:59.422Z</time>
      </trkpt>
      <trkpt lat="14.158371" lon="101.401807">
        <ele>68.263915</ele>
        <time>2023-07-23T09:40:09.736Z</time>
      </trkpt>
      <trkpt lat="14.158617" lon="101.401549">
        <ele>69.025543</ele>
        <time>2023-07-23T09:40:23.151Z</time>
      </trkpt>
      <trkpt lat="14.159126" lon="101.401325">
        <ele>70.226867</ele>
        <time>2023-07-23T09:40:45.979Z</time>
      </trkpt>
      <trkpt lat="14.159372" lon="101.401294">
        <ele>70.764853</ele>
        <time>2023-07-23T09:40:57.112Z</time>
      </trkpt>
      <trkpt lat="14.159574" lon="101.401120">
        <ele>71.336182</ele>
        <time>2023-07-23T09:41:09.823Z</time>
      </trkpt>
      <trkpt lat="14.159540" lon="101.400920">
        <ele>71.919557</ele>
        <time>2023-07-23T09:41:19.735Z</time>
      </trkpt>
      <trkpt lat="14.159555" lon="101.400752">
        <ele>72.675243</ele>
        <time>2023-07-23T09:41:28.208Z</time>
      </trkpt>
      <trkpt lat="14.159696" lon="101.400586">
        <ele>73.663737</ele>
        <time>2023-07-23T09:41:39.458Z</time>
      </trkpt>
      <trkpt lat="14.159796" lon="101.400168">
        <ele>75.592182</ele>
        <time>2023-07-23T09:42:02.269Z</time>
      </trkpt>
      <trkpt lat="14.159996" lon="101.399920">
        <ele>77.037021</ele>
        <time>2023-07-23T09:42:19.867Z</time>
      </trkpt>
      <trkpt lat="14.160106" lon="101.399592">
        <ele>78.591587</ele>
        <time>2023-07-23T09:42:39.097Z</time>
      </trkpt>
      <trkpt lat="14.160713" lon="101.399119">
        <ele>82.635417</ele>
        <time>2023-07-23T09:43:23.779Z</time>
      </trkpt>
      <trkpt lat="14.160894" lon="101.399075">
        <ele>83.703852</ele>
        <time>2023-07-23T09:43:35.197Z</time>
      </trkpt>
      <trkpt lat="14.161563" lon="101.398916">
        <ele>87.648341</ele>
        <time>2023-07-23T09:44:17.655Z</time>
      </trkpt>
      <trkpt lat="14.161774" lon="101.398706">
        <ele>89.333073</ele>
        <time>2023-07-23T09:44:35.812Z</time>
      </trkpt>
      <trkpt lat="14.161916" lon="101.398441">
        <ele>90.990277</ele>
        <time>2023-07-23T09:44:53.778Z</time>
      </trkpt>
      <trkpt lat="14.162473" lon="101.397794">
        <ele>95.620972</ele>
        <time>2023-07-23T09:45:43.695Z</time>
      </trkpt>
      <trkpt lat="14.162733" lon="101.397651">
        <ele>97.247433</ele>
        <time>2023-07-23T09:46:00.981Z</time>
      </trkpt>
      <trkpt lat="14.162971" lon="101.397230">
        <ele>99.855633</ele>
        <time>2023-07-23T09:46:28.492Z</time>
      </trkpt>
      <trkpt lat="14.163009" lon="101.396929">
        <ele>101.529313</ele>
        <time>2023-07-23T09:46:45.719Z</time>
      </trkpt>
      <trkpt lat="14.163228" lon="101.396593">
        <ele>103.779047</ele>
        <time>2023-07-23T09:47:09.295Z</time>
      </trkpt>
      <trkpt lat="14.163600" lon="101.396021">
        <ele>107.606322</ele>
        <time>2023-07-23T09:47:50.050Z</time>
      </trkpt>
      <trkpt lat="14.163878" lon="101.395789">
        <ele>109.655799</ele>
        <time>2023-07-23T09:48:11.886Z</time>
      </trkpt>
      <trkpt lat="14.164084" lon="101.395754">
        <ele>110.911470</ele>
        <time>2023-07-23T09:48:24.694Z</time>
      </trkpt>
      <trkpt lat="14.164166" lon="101.395683">
        <ele>111.629452</ele>
        <time>2023-07-23T09:48:31.201Z</time>
      </trkpt>
      <trkpt lat="14.164408" lon="101.395608">
        <ele>113.323983</ele>
        <time>2023-07-23T09:48:46.629Z</time>
      </trkpt>
      <trkpt lat="14.164436" lon="101.395560">
        <ele>113.688213</ele>
        <time>2023-07-23T09:48:50.010Z</time>
      </trkpt>
      <trkpt lat="14.164742" lon="101.395421">
        <ele>115.930455</ele>
        <time>2023-07-23T09:49:10.887Z</time>
      </trkpt>
      <trkpt lat="14.164893" lon="101.395386">
        <ele>116.968314</ele>
        <time>2023-07-23T09:49:20.933Z</time>
      </trkpt>
      <trkpt lat="14.165703" lon="101.395046">
        <ele>122.906011</ele>
        <time>2023-07-23T09:50:20.548Z</time>
      </trkpt>
      <trkpt lat="14.166109" lon="101.394912">
        <ele>126.549687</ele>
        <time>2023-07-23T09:50:50.926Z</time>
      </trkpt>
      <trkpt lat="14.166812" lon="101.394952">
        <ele>132.567763</ele>
        <time>2023-07-23T09:51:42.997Z</time>
      </trkpt>
      <trkpt lat="14.167078" lon="101.394884">
        <ele>134.910217</ele>
        <time>2023-07-23T09:52:03.951Z</time>
      </trkpt>
      <trkpt lat="14.167382" lon="101.394634">
        <ele>138.273488</ele>
        <time>2023-07-23T09:52:34.648Z</time>
      </trkpt>
      <trkpt lat="14.168068" lon="101.394270">
        <ele>145.764447</ele>
        <time>2023-07-23T09:53:37.696Z</time>
      </trkpt>
      <trkpt lat="14.168501" lon="101.394171">
        <ele>150.070981</ele>
        <time>2023-07-23T09:54:13.742Z</time>
      </trkpt>
      <trkpt lat="14.169455" lon="101.393833">
        <ele>159.643072</ele>
        <time>2023-07-23T09:55:34.249Z</time>
      </trkpt>
      <trkpt lat="14.170043" lon="101.393493">
        <ele>165.861954</ele>
        <time>2023-07-23T09:56:27.051Z</time>
      </trkpt>
      <trkpt lat="14.170313" lon="101.393438">
        <ele>168.400929</ele>
        <time>2023-07-23T09:56:48.319Z</time>
      </trkpt>
      <trkpt lat="14.170654" lon="101.393492">
        <ele>171.583655</ele>
        <time>2023-07-23T09:57:14.765Z</time>
      </trkpt>
      <trkpt lat="14.170769" lon="101.393383">
        <ele>172.934995</ele>
        <time>2023-07-23T09:57:26.591Z</time>
      </trkpt>
      <trkpt lat="14.170981" lon="101.393338">
        <ele>174.757553</ele>
        <time>2023-07-23T09:57:42.684Z</time>
      </trkpt>
      <trkpt lat="14.171257" lon="101.393183">
        <ele>177.403799</ele>
        <time>2023-07-23T09:58:06.088Z</time>
      </trkpt>
      <trkpt lat="14.171463" lon="101.393274">
        <ele>179.290829</ele>
        <time>2023-07-23T09:58:22.651Z</time>
      </trkpt>
      <trkpt lat="14.171642" lon="101.393278">
        <ele>180.798451</ele>
        <time>2023-07-23T09:58:35.747Z</time>
      </trkpt>
      <trkpt lat="14.172359" lon="101.393012">
        <ele>187.217615</ele>
        <time>2023-07-23T09:59:31.446Z</time>
      </trkpt>
      <trkpt lat="14.172735" lon="101.392811">
        <ele>190.933302</ele>
        <time>2023-07-23T10:00:02.189Z</time>
      </trkpt>
      <trkpt lat="14.173479" lon="101.392767">
        <ele>197.471649</ele>
        <time>2023-07-23T10:00:57.394Z</time>
      </trkpt>
      <trkpt lat="14.173910" lon="101.392817">
        <ele>201.276955</ele>
        <time>2023-07-23T10:01:30.999Z</time>
      </trkpt>
      <trkpt lat="14.174052" lon="101.393198">
        <ele>205.080781</ele>
        <time>2023-07-23T10:02:02.841Z</time>
      </trkpt>
      <trkpt lat="14.174397" lon="101.393421">
        <ele>209.302203</ele>
        <time>2023-07-23T10:02:36.525Z</time>
      </trkpt>
      <trkpt lat="14.174908" lon="101.393335">
        <ele>214.670418</ele>
        <time>2023-07-23T10:03:20.542Z</time>
      </trkpt>
      <trkpt lat="14.175299" lon="101.393382">
        <ele>218.751819</ele>
        <time>2023-07-23T10:03:54.640Z</time>
      </trkpt>
      <trkpt lat="14.175776" lon="101.393259">
        <ele>223.604013</ele>
        <time>2023-07-23T10:04:36.969Z</time>
      </trkpt>
      <trkpt lat="14.175844" lon="101.393282">
        <ele>224.265925</ele>
        <time>2023-07-23T10:04:43.053Z</time>
      </trkpt>
      <trkpt lat="14.175908" lon="101.393357">
        <ele>225.161902</ele>
        <time>2023-07-23T10:04:51.408Z</time>
      </trkpt>
      <trkpt lat="14.175894" lon="101.393442">
        <ele>225.935077</ele>
        <time>2023-07-23T10:04:58.478Z</time>
      </trkpt>
      <trkpt lat="14.175993" lon="101.393507">
        <ele>227.020551</ele>
        <time>2023-07-23T10:05:08.202Z</time>
      </trkpt>
      <trkpt lat="14.176474" lon="101.393684">
        <ele>231.744165</ele>
        <time>2023-07-23T10:05:48.849Z</time>
      </trkpt>
      <trkpt lat="14.177259" lon="101.393725">
        <ele>238.864194</ele>
        <time>2023-07-23T10:06:45.605Z</time>
      </trkpt>
      <trkpt lat="14.177531" lon="101.393822">
        <ele>241.029898</ele>
        <time>2023-07-23T10:07:04.997Z</time>
      </trkpt>
      <trkpt lat="14.177613" lon="101.393850">
        <ele>241.679888</ele>
        <time>2023-07-23T10:07:10.686Z</time>
      </trkpt>
      <trkpt lat="14.177747" lon="101.393773">
        <ele>242.834175</ele>
        <time>2023-07-23T10:07:20.698Z</time>
      </trkpt>
      <trkpt lat="14.178132" lon="101.393160">
        <ele>248.162898</ele>
        <time>2023-07-23T10:08:07.324Z</time>
      </trkpt>
      <trkpt lat="14.178288" lon="101.393028">
        <ele>249.681292</ele>
        <time>2023-07-23T10:08:21.279Z</time>
      </trkpt>
      <trkpt lat="14.178802" lon="101.392889">
        <ele>254.430070</ele>
        <time>2023-07-23T10:09:00.865Z</time>
      </trkpt>
      <trkpt lat="14.179001" lon="101.392803">
        <ele>256.682967</ele>
        <time>2023-07-23T10:09:18.159Z</time>
      </trkpt>
      <trkpt lat="14.179263" lon="101.392567">
        <ele>260.315050</ele>
        <time>2023-07-23T10:09:47.343Z</time>
      </trkpt>
      <trkpt lat="14.179614" lon="101.392460">
        <ele>264.136770</ele>
        <time>2023-07-23T10:10:19.126Z</time>
      </trkpt>
      <trkpt lat="14.180323" lon="101.391863">
        <ele>273.748364</ele>
        <time>2023-07-23T10:11:41.491Z</time>
      </trkpt>
      <trkpt lat="14.180572" lon="101.391432">
        <ele>278.915341</ele>
        <time>2023-07-23T10:12:25.923Z</time>
      </trkpt>
      <trkpt lat="14.180681" lon="101.390919">
        <ele>284.323890</ele>
        <time>2023-07-23T10:13:10.483Z</time>
      </trkpt>
      <trkpt lat="14.181031" lon="101.390377">
        <ele>290.611989</ele>
        <time>2023-07-23T10:13:59.719Z</time>
      </trkpt>
      <trkpt lat="14.181164" lon="101.390043">
        <ele>293.218763</ele>
        <time>2023-07-23T10:14:24.183Z</time>
      </trkpt>
      <trkpt lat="14.181190" lon="101.389703">
        <ele>295.681016</ele>
        <time>2023-07-23T10:14:46.263Z</time>
      </trkpt>
      <trkpt lat="14.181318" lon="101.389366">
        <ele>298.294026</ele>
        <time>2023-07-23T10:15:09.421Z</time>
      </trkpt>
      <trkpt lat="14.181305" lon="101.388820">
        <ele>302.237058</ele>
        <time>2023-07-23T10:15:44.027Z</time>
      </trkpt>
      <trkpt lat="14.181453" lon="101.388585">
        <ele>304.099669</ele>
        <time>2023-07-23T10:16:02.159Z</time>
      </trkpt>
      <trkpt lat="14.181481" lon="101.388213">
        <ele>306.443630</ele>
        <time>2023-07-23T10:16:26.748Z</time>
      </trkpt>
      <trkpt lat="14.181727" lon="101.387793">
        <ele>309.526199</ele>
        <time>2023-07-23T10:17:00.480Z</time>
      </trkpt>
      <trkpt lat="14.181859" lon="101.386967">
        <ele>314.650921</ele>
        <time>2023-07-23T10:17:52.417Z</time>
      </trkpt>
      <trkpt lat="14.182091" lon="101.386457">
        <ele>313.735534</ele>
        <time>2023-07-23T10:18:18.436Z</time>
      </trkpt>
      <trkpt lat="14.182064" lon="101.386080">
        <ele>313.121277</ele>
        <time>2023-07-23T10:18:30.004Z</time>
      </trkpt>
      <trkpt lat="14.181996" lon="101.385988">
        <ele>312.933298</ele>
        <time>2023-07-23T10:18:33.093Z</time>
      </trkpt>
      <trkpt lat="14.181804" lon="101.386062">
        <ele>312.589777</ele>
        <time>2023-07-23T10:18:38.315Z</time>
      </trkpt>
      <trkpt lat="14.181733" lon="101.386309">
        <ele>312.171157</ele>
        <time>2023-07-23T10:18:41.883Z</time>
      </trkpt>
      <trkpt lat="14.181577" lon="101.386264">
        <ele>311.899671</ele>
        <time>2023-07-23T10:18:45.609Z</time>
      </trkpt>
      <trkpt lat="14.181088" lon="101.386232">
        <ele>307.224067</ele>
        <time>2023-07-23T10:18:56.216Z</time>
      </trkpt>
      <trkpt lat="14.179528" lon="101.386565">
        <ele>286.958779</ele>
        <time>2023-07-23T10:19:28.698Z</time>
      </trkpt>
      <trkpt lat="14.179039" lon="101.386178">
        <ele>279.038407</ele>
        <time>2023-07-23T10:19:41.226Z</time>
      </trkpt>
      <trkpt lat="14.178665" lon="101.386243">
        <ele>274.164691</ele>
        <time>2023-07-23T10:19:49.048Z</time>
      </trkpt>
      <trkpt lat="14.178384" lon="101.386071">
        <ele>269.965808</ele>
        <time>2023-07-23T10:19:55.872Z</time>
      </trkpt>
      <trkpt lat="14.177604" lon="101.386050">
        <ele>261.498473</ele>
        <time>2023-07-23T10:20:12.498Z</time>
      </trkpt>
      <trkpt lat="14.177271" lon="101.386146">
        <ele>258.259267</ele>
        <time>2023-07-23T10:20:19.959Z</time>
      </trkpt>
      <trkpt lat="14.177135" lon="101.386361">
        <ele>255.927560</ele>
        <time>2023-07-23T10:20:25.365Z</time>
      </trkpt>
      <trkpt lat="14.177125" lon="101.386897">
        <ele>251.058195</ele>
        <time>2023-07-23T10:20:36.825Z</time>
      </trkpt>
      <trkpt lat="14.176886" lon="101.387058">
        <ele>248.435566</ele>
        <time>2023-07-23T10:20:43.168Z</time>
      </trkpt>
      <trkpt lat="14.176303" lon="101.386951">
        <ele>243.511413</ele>
        <time>2023-07-23T10:20:56.403Z</time>
      </trkpt>
      <trkpt lat="14.175908" lon="101.386683">
        <ele>239.579783</ele>
        <time>2023-07-23T10:21:06.897Z</time>
      </trkpt>
      <trkpt lat="14.175648" lon="101.386436">
        <ele>236.640361</ele>
        <time>2023-07-23T10:21:14.692Z</time>
      </trkpt>
      <trkpt lat="14.174764" lon="101.386650">
        <ele>228.142727</ele>
        <time>2023-07-23T10:21:34.665Z</time>
      </trkpt>
      <trkpt lat="14.174653" lon="101.386547">
        <ele>226.656036</ele>
        <time>2023-07-23T10:21:37.913Z</time>
      </trkpt>
      <trkpt lat="14.174316" lon="101.386232">
        <ele>222.127583</ele>
        <time>2023-07-23T10:21:47.706Z</time>
      </trkpt>
      <trkpt lat="14.173984" lon="101.386060">
        <ele>218.428266</ele>
        <time>2023-07-23T10:21:55.597Z</time>
      </trkpt>
      <trkpt lat="14.173755" lon="101.386039">
        <ele>216.139119</ele>
        <time>2023-07-23T10:22:00.424Z</time>
      </trkpt>
      <trkpt lat="14.173453" lon="101.386211">
        <ele>212.023993</ele>
        <time>2023-07-23T10:22:07.624Z</time>
      </trkpt>
      <trkpt lat="14.173079" lon="101.386200">
        <ele>207.524540</ele>
        <time>2023-07-23T10:22:15.414Z</time>
      </trkpt>
      <trkpt lat="14.172829" lon="101.386618">
        <ele>201.798105</ele>
        <time>2023-07-23T10:22:25.265Z</time>
      </trkpt>
      <trkpt lat="14.172506" lon="101.386886">
        <ele>196.812902</ele>
        <time>2023-07-23T10:22:33.817Z</time>
      </trkpt>
      <trkpt lat="14.171102" lon="101.386983">
        <ele>183.234768</ele>
        <time>2023-07-23T10:23:03.911Z</time>
      </trkpt>
      <trkpt lat="14.170859" lon="101.387208">
        <ele>180.216016</ele>
        <time>2023-07-23T10:23:11.357Z</time>
      </trkpt>
      <trkpt lat="14.170696" lon="101.387359">
        <ele>178.190647</ele>
        <time>2023-07-23T10:23:16.407Z</time>
      </trkpt>
      <trkpt lat="14.170395" lon="101.387326">
        <ele>176.005046</ele>
        <time>2023-07-23T10:23:23.382Z</time>
      </trkpt>
      <trkpt lat="14.170239" lon="101.387401">
        <ele>174.832614</ele>
        <time>2023-07-23T10:23:27.340Z</time>
      </trkpt>
      <trkpt lat="14.170187" lon="101.387595">
        <ele>173.503260</ele>
        <time>2023-07-23T10:23:31.833Z</time>
      </trkpt>
      <trkpt lat="14.170083" lon="101.387659">
        <ele>172.678305</ele>
        <time>2023-07-23T10:23:34.634Z</time>
      </trkpt>
      <trkpt lat="14.169968" lon="101.387691">
        <ele>171.866930</ele>
        <time>2023-07-23T10:23:37.364Z</time>
      </trkpt>
      <trkpt lat="14.169750" lon="101.387648">
        <ele>170.355029</ele>
        <time>2023-07-23T10:23:42.528Z</time>
      </trkpt>
      <trkpt lat="14.169604" lon="101.387788">
        <ele>168.997064</ele>
        <time>2023-07-23T10:23:47.126Z</time>
      </trkpt>
      <trkpt lat="14.169434" lon="101.387799">
        <ele>167.836769</ele>
        <time>2023-07-23T10:23:51.054Z</time>
      </trkpt>
      <trkpt lat="14.169271" lon="101.387809">
        <ele>166.724472</ele>
        <time>2023-07-23T10:23:54.781Z</time>
      </trkpt>
      <trkpt lat="14.168574" lon="101.388485">
        <ele>159.300867</ele>
        <time>2023-07-23T10:24:16.166Z</time>
      </trkpt>
      <trkpt lat="14.168304" lon="101.388667">
        <ele>156.725243</ele>
        <time>2023-07-23T10:24:23.200Z</time>
      </trkpt>
      <trkpt lat="14.166261" lon="101.389005">
        <ele>141.175404</ele>
        <time>2023-07-23T10:25:09.413Z</time>
      </trkpt>
      <trkpt lat="14.166257" lon="101.389230">
        <ele>139.588477</ele>
        <time>2023-07-23T10:25:14.639Z</time>
      </trkpt>
      <trkpt lat="14.166293" lon="101.389441">
        <ele>138.077682</ele>
        <time>2023-07-23T10:25:19.472Z</time>
      </trkpt>
      <trkpt lat="14.166374" lon="101.389655">
        <ele>136.624519</ele>
        <time>2023-07-23T10:25:24.706Z</time>
      </trkpt>
      <trkpt lat="14.166293" lon="101.389441">
        <ele>135.177017</ele>
        <time>2023-07-23T10:25:29.973Z</time>
      </trkpt>
      <trkpt lat="14.166257" lon="101.389230">
        <ele>133.827094</ele>
        <time>2023-07-23T10:25:34.779Z</time>
      </trkpt>
      <trkpt lat="14.166261" lon="101.389005">
        <ele>132.409146</ele>
        <time>2023-07-23T10:25:39.960Z</time>
      </trkpt>
      <trkpt lat="14.165069" lon="101.388165">
        <ele>122.687926</ele>
        <time>2023-07-23T10:26:12.922Z</time>
      </trkpt>
      <trkpt lat="14.164973" lon="101.388183">
        <ele>121.988794</ele>
        <time>2023-07-23T10:26:15.039Z</time>
      </trkpt>
      <trkpt lat="14.164693" lon="101.388039">
        <ele>119.746947</ele>
        <time>2023-07-23T10:26:21.914Z</time>
      </trkpt>
      <trkpt lat="14.164584" lon="101.387941">
        <ele>118.710843</ele>
        <time>2023-07-23T10:26:25.102Z</time>
      </trkpt>
      <trkpt lat="14.164484" lon="101.387936">
        <ele>117.993483</ele>
        <time>2023-07-23T10:26:27.326Z</time>
      </trkpt>
      <trkpt lat="14.164426" lon="101.387880">
        <ele>117.424213</ele>
        <time>2023-07-23T10:26:29.116Z</time>
      </trkpt>
      <trkpt lat="14.164407" lon="101.387796">
        <ele>116.824966</ele>
        <time>2023-07-23T10:26:30.998Z</time>
      </trkpt>
      <trkpt lat="14.164430" lon="101.387604">
        <ele>115.480934</ele>
        <time>2023-07-23T10:26:35.248Z</time>
      </trkpt>
      <trkpt lat="14.164489" lon="101.387534">
        <ele>114.836562</ele>
        <time>2023-07-23T10:26:37.313Z</time>
      </trkpt>
      <trkpt lat="14.164444" lon="101.387460">
        <ele>114.229713</ele>
        <time>2023-07-23T10:26:39.304Z</time>
      </trkpt>
      <trkpt lat="14.164367" lon="101.387404">
        <ele>113.554617</ele>
        <time>2023-07-23T10:26:41.498Z</time>
      </trkpt>
      <trkpt lat="14.164303" lon="101.387264">
        <ele>113.268715</ele>
        <time>2023-07-23T10:26:45.067Z</time>
      </trkpt>
      <trkpt lat="14.164362" lon="101.386683">
        <ele>112.516530</ele>
        <time>2023-07-23T10:26:59.270Z</time>
      </trkpt>
      <trkpt lat="14.164457" lon="101.386356">
        <ele>112.076992</ele>
        <time>2023-07-23T10:27:08.497Z</time>
      </trkpt>
      <trkpt lat="14.164579" lon="101.386221">
        <ele>111.839372</ele>
        <time>2023-07-23T10:27:14.001Z</time>
      </trkpt>
      <trkpt lat="14.164779" lon="101.386090">
        <ele>111.524744</ele>
        <time>2023-07-23T10:27:22.180Z</time>
      </trkpt>
      <trkpt lat="14.164942" lon="101.385912">
        <ele>111.209493</ele>
        <time>2023-07-23T10:27:32.218Z</time>
      </trkpt>
      <trkpt lat="14.165064" lon="101.385487">
        <ele>112.997427</ele>
        <time>2023-07-23T10:27:54.128Z</time>
      </trkpt>
      <trkpt lat="14.164973" lon="101.385277">
        <ele>114.360632</ele>
        <time>2023-07-23T10:28:07.474Z</time>
      </trkpt>
      <trkpt lat="14.164955" lon="101.385086">
        <ele>115.497929</ele>
        <time>2023-07-23T10:28:19.245Z</time>
      </trkpt>
      <trkpt lat="14.165032" lon="101.384885">
        <ele>116.778763</ele>
        <time>2023-07-23T10:28:33.154Z</time>
      </trkpt>
      <trkpt lat="14.165173" lon="101.384792">
        <ele>117.801775</ele>
        <time>2023-07-23T10:28:44.518Z</time>
      </trkpt>
      <trkpt lat="14.165376" lon="101.384194">
        <ele>121.556752</ele>
        <time>2023-07-23T10:29:27.463Z</time>
      </trkpt>
      <trkpt lat="14.165367" lon="101.384007">
        <ele>122.690594</ele>
        <time>2023-07-23T10:29:40.392Z</time>
      </trkpt>
      <trkpt lat="14.165136" lon="101.383760">
        <ele>124.804831</ele>
        <time>2023-07-23T10:30:04.053Z</time>
      </trkpt>
      <trkpt lat="14.165032" lon="101.383727">
        <ele>125.496216</ele>
        <time>2023-07-23T10:30:11.766Z</time>
      </trkpt>
      <trkpt lat="14.164928" lon="101.383587">
        <ele>126.582775</ele>
        <time>2023-07-23T10:30:23.766Z</time>
      </trkpt>
      <trkpt lat="14.164779" lon="101.383507">
        <ele>127.650130</ele>
        <time>2023-07-23T10:30:35.388Z</time>
      </trkpt>
      <trkpt lat="14.164684" lon="101.383363">
        <ele>128.723172</ele>
        <time>2023-07-23T10:30:46.679Z</time>
      </trkpt>
      <trkpt lat="14.164267" lon="101.383349">
        <ele>131.374198</ele>
        <time>2023-07-23T10:31:12.442Z</time>
      </trkpt>
      <trkpt lat="14.164140" lon="101.383321">
        <ele>132.199389</ele>
        <time>2023-07-23T10:31:19.777Z</time>
      </trkpt>
      <trkpt lat="14.163950" lon="101.383162">
        <ele>133.578850</ele>
        <time>2023-07-23T10:31:32.610Z</time>
      </trkpt>
      <trkpt lat="14.163629" lon="101.382975">
        <ele>134.411067</ele>
        <time>2023-07-23T10:31:50.028Z</time>
      </trkpt>
      <trkpt lat="14.163198" lon="101.382812">
        <ele>135.447338</ele>
        <time>2023-07-23T10:32:09.692Z</time>
      </trkpt>
      <trkpt lat="14.163058" lon="101.382863">
        <ele>135.782503</ele>
        <time>2023-07-23T10:32:15.737Z</time>
      </trkpt>
      <trkpt lat="14.162945" lon="101.382830">
        <ele>136.047614</ele>
        <time>2023-07-23T10:32:20.641Z</time>
      </trkpt>
      <trkpt lat="14.162732" lon="101.382877">
        <ele>136.539313</ele>
        <time>2023-07-23T10:32:29.263Z</time>
      </trkpt>
      <trkpt lat="14.162474" lon="101.383050">
        <ele>137.233984</ele>
        <time>2023-07-23T10:32:41.185Z</time>
      </trkpt>
      <trkpt lat="14.162352" lon="101.383073">
        <ele>137.513945</ele>
        <time>2023-07-23T10:32:45.880Z</time>
      </trkpt>
      <trkpt lat="14.162094" lon="101.383026">
        <ele>137.641636</ele>
        <time>2023-07-23T10:32:55.233Z</time>
      </trkpt>
      <trkpt lat="14.161713" lon="101.383180">
        <ele>137.804358</ele>
        <time>2023-07-23T10:33:09.177Z</time>
      </trkpt>
      <trkpt lat="14.161478" lon="101.383148">
        <ele>137.898616</ele>
        <time>2023-07-23T10:33:16.912Z</time>
      </trkpt>
      <trkpt lat="14.161292" lon="101.383008">
        <ele>137.990180</ele>
        <time>2023-07-23T10:33:24.394Z</time>
      </trkpt>
      <trkpt lat="14.161107" lon="101.382751">
        <ele>138.113591</ele>
        <time>2023-07-23T10:33:34.359Z</time>
      </trkpt>
      <trkpt lat="14.160993" lon="101.382298">
        <ele>138.300971</ele>
        <time>2023-07-23T10:33:49.033Z</time>
      </trkpt>
      <trkpt lat="14.160934" lon="101.382148">
        <ele>138.375294</ele>
        <time>2023-07-23T10:33:53.997Z</time>
      </trkpt>
      <trkpt lat="14.160785" lon="101.382013">
        <ele>138.469210</ele>
        <time>2023-07-23T10:34:00.393Z</time>
      </trkpt>
      <trkpt lat="14.160568" lon="101.381910">
        <ele>138.582327</ele>
        <time>2023-07-23T10:34:08.119Z</time>
      </trkpt>
      <trkpt lat="14.160445" lon="101.381775">
        <ele>138.667383</ele>
        <time>2023-07-23T10:34:13.991Z</time>
      </trkpt>
      <trkpt lat="14.160260" lon="101.381719">
        <ele>138.758682</ele>
        <time>2023-07-23T10:34:20.448Z</time>
      </trkpt>
      <trkpt lat="14.160002" lon="101.381775">
        <ele>138.883530</ele>
        <time>2023-07-23T10:34:29.465Z</time>
      </trkpt>
      <trkpt lat="14.159486" lon="101.381579">
        <ele>139.193715</ele>
        <time>2023-07-23T10:34:49.658Z</time>
      </trkpt>
      <trkpt lat="14.159404" lon="101.381396">
        <ele>139.419886</ele>
        <time>2023-07-23T10:34:57.203Z</time>
      </trkpt>
      <trkpt lat="14.159119" lon="101.380995">
        <ele>139.977682</ele>
        <time>2023-07-23T10:35:16.158Z</time>
      </trkpt>
      <trkpt lat="14.159137" lon="101.380822">
        <ele>140.172886</ele>
        <time>2023-07-23T10:35:22.834Z</time>
      </trkpt>
      <trkpt lat="14.159073" lon="101.380607">
        <ele>140.425206</ele>
        <time>2023-07-23T10:35:31.338Z</time>
      </trkpt>
      <trkpt lat="14.158811" lon="101.380028">
        <ele>141.142044</ele>
        <time>2023-07-23T10:35:54.567Z</time>
      </trkpt>
      <trkpt lat="14.158376" lon="101.379580">
        <ele>140.746445</ele>
        <time>2023-07-23T10:36:15.341Z</time>
      </trkpt>
      <trkpt lat="14.158184" lon="101.379585">
        <ele>140.597544</ele>
        <time>2023-07-23T10:36:21.280Z</time>
      </trkpt>
      <trkpt lat="14.158151" lon="101.379568">
        <ele>140.568946</ele>
        <time>2023-07-23T10:36:22.391Z</time>
      </trkpt>
      <trkpt lat="14.157904" lon="101.379445">
        <ele>140.356298</ele>
        <time>2023-07-23T10:36:30.545Z</time>
      </trkpt>
      <trkpt lat="14.157777" lon="101.379276">
        <ele>140.195568</ele>
        <time>2023-07-23T10:36:36.462Z</time>
      </trkpt>
      <trkpt lat="14.157668" lon="101.379178">
        <ele>140.083459</ele>
        <time>2023-07-23T10:36:40.518Z</time>
      </trkpt>
      <trkpt lat="14.157609" lon="101.379034">
        <ele>139.965943</ele>
        <time>2023-07-23T10:36:44.664Z</time>
      </trkpt>
      <trkpt lat="14.157247" lon="101.379038">
        <ele>139.514951</ele>
        <time>2023-07-23T10:36:54.361Z</time>
      </trkpt>
      <trkpt lat="14.157075" lon="101.379094">
        <ele>139.160205</ele>
        <time>2023-07-23T10:36:59.123Z</time>
      </trkpt>
      <trkpt lat="14.156749" lon="101.379445">
        <ele>138.233289</ele>
        <time>2023-07-23T10:37:11.489Z</time>
      </trkpt>
      <trkpt lat="14.156677" lon="101.379449">
        <ele>138.091474</ele>
        <time>2023-07-23T10:37:13.424Z</time>
      </trkpt>
      <trkpt lat="14.156577" lon="101.379365">
        <ele>137.837811</ele>
        <time>2023-07-23T10:37:16.884Z</time>
      </trkpt>
      <trkpt lat="14.156486" lon="101.379351">
        <ele>137.656852</ele>
        <time>2023-07-23T10:37:19.348Z</time>
      </trkpt>
      <trkpt lat="14.156237" lon="101.379514">
        <ele>137.076795</ele>
        <time>2023-07-23T10:37:27.545Z</time>
      </trkpt>
      <trkpt lat="14.156142" lon="101.379529">
        <ele>136.887773</ele>
        <time>2023-07-23T10:37:30.255Z</time>
      </trkpt>
      <trkpt lat="14.156083" lon="101.379449">
        <ele>136.696091</ele>
        <time>2023-07-23T10:37:33.057Z</time>
      </trkpt>
      <trkpt lat="14.155970" lon="101.379398">
        <ele>136.453493</ele>
        <time>2023-07-23T10:37:36.660Z</time>
      </trkpt>
      <trkpt lat="14.155855" lon="101.379426">
        <ele>136.263511</ele>
        <time>2023-07-23T10:37:40.134Z</time>
      </trkpt>
      <trkpt lat="14.155484" lon="101.379314">
        <ele>136.364484</ele>
        <time>2023-07-23T10:37:51.862Z</time>
      </trkpt>
      <trkpt lat="14.155203" lon="101.379295">
        <ele>136.438040</ele>
        <time>2023-07-23T10:38:00.681Z</time>
      </trkpt>
      <trkpt lat="14.155017" lon="101.379412">
        <ele>136.494947</ele>
        <time>2023-07-23T10:38:07.758Z</time>
      </trkpt>
      <trkpt lat="14.154863" lon="101.379426">
        <ele>136.535329</ele>
        <time>2023-07-23T10:38:12.926Z</time>
      </trkpt>
      <trkpt lat="14.154763" lon="101.379477">
        <ele>136.564469</ele>
        <time>2023-07-23T10:38:16.829Z</time>
      </trkpt>
      <trkpt lat="14.154560" lon="101.379673">
        <ele>136.637104</ele>
        <time>2023-07-23T10:38:26.885Z</time>
      </trkpt>
      <trkpt lat="14.154333" lon="101.379813">
        <ele>136.706191</ele>
        <time>2023-07-23T10:38:37.047Z</time>
      </trkpt>
      <trkpt lat="14.154261" lon="101.379958">
        <ele>136.768775</ele>
        <time>2023-07-23T10:38:43.139Z</time>
      </trkpt>
      <trkpt lat="14.154297" lon="101.380098">
        <ele>136.846416</ele>
        <time>2023-07-23T10:38:48.691Z</time>
      </trkpt>
      <trkpt lat="14.154428" lon="101.380182">
        <ele>136.931693</ele>
        <time>2023-07-23T10:38:54.711Z</time>
      </trkpt>
      <trkpt lat="14.154614" lon="101.380243">
        <ele>137.039593</ele>
        <time>2023-07-23T10:39:02.198Z</time>
      </trkpt>
      <trkpt lat="14.154650" lon="101.380327">
        <ele>137.088823</ele>
        <time>2023-07-23T10:39:05.565Z</time>
      </trkpt>
      <trkpt lat="14.154628" lon="101.380439">
        <ele>137.150079</ele>
        <time>2023-07-23T10:39:09.642Z</time>
      </trkpt>
      <trkpt lat="14.154668" lon="101.380649">
        <ele>137.264800</ele>
        <time>2023-07-23T10:39:17.066Z</time>
      </trkpt>
      <trkpt lat="14.154949" lon="101.380986">
        <ele>137.503054</ele>
        <time>2023-07-23T10:39:31.111Z</time>
      </trkpt>
      <trkpt lat="14.154913" lon="101.381144">
        <ele>137.590056</ele>
        <time>2023-07-23T10:39:36.102Z</time>
      </trkpt>
      <trkpt lat="14.154809" lon="101.381210">
        <ele>137.657563</ele>
        <time>2023-07-23T10:39:40.074Z</time>
      </trkpt>
      <trkpt lat="14.154601" lon="101.381102">
        <ele>137.610305</ele>
        <time>2023-07-23T10:39:47.134Z</time>
      </trkpt>
      <trkpt lat="14.154428" lon="101.381056">
        <ele>137.435809</ele>
        <time>2023-07-23T10:39:52.580Z</time>
      </trkpt>
      <trkpt lat="14.154288" lon="101.380939">
        <ele>137.259810</ele>
        <time>2023-07-23T10:39:57.906Z</time>
      </trkpt>
      <trkpt lat="14.154157" lon="101.380944">
        <ele>137.131774</ele>
        <time>2023-07-23T10:40:01.879Z</time>
      </trkpt>
      <trkpt lat="14.153749" lon="101.380878">
        <ele>136.728405</ele>
        <time>2023-07-23T10:40:13.940Z</time>
      </trkpt>
      <trkpt lat="14.153564" lon="101.380925">
        <ele>136.542312</ele>
        <time>2023-07-23T10:40:19.476Z</time>
      </trkpt>
      <trkpt lat="14.153437" lon="101.380892">
        <ele>136.414394</ele>
        <time>2023-07-23T10:40:23.342Z</time>
      </trkpt>
      <trkpt lat="14.153434" lon="101.381669">
        <ele>135.163079</ele>
        <time>2023-07-23T10:40:44.612Z</time>
      </trkpt>
      <trkpt lat="14.153265" lon="101.382481">
        <ele>132.966030</ele>
        <time>2023-07-23T10:41:06.412Z</time>
      </trkpt>
      <trkpt lat="14.153062" lon="101.384136">
        <ele>126.989733</ele>
        <time>2023-07-23T10:41:46.971Z</time>
      </trkpt>
      <trkpt lat="14.153039" lon="101.386565">
        <ele>116.580658</ele>
        <time>2023-07-23T10:42:43.614Z</time>
      </trkpt>
      <trkpt lat="14.152909" lon="101.387256">
        <ele>114.507818</ele>
        <time>2023-07-23T10:43:01.667Z</time>
      </trkpt>
      <trkpt lat="14.152900" lon="101.387308">
        <ele>114.415733</ele>
        <time>2023-07-23T10:43:03.085Z</time>
      </trkpt>
      <trkpt lat="14.152909" lon="101.387727">
        <ele>113.685104</ele>
        <time>2023-07-23T10:43:14.746Z</time>
      </trkpt>
      <trkpt lat="14.154039" lon="101.387878">
        <ele>111.365729</ele>
        <time>2023-07-23T10:43:47.536Z</time>
      </trkpt>
      <trkpt lat="14.154321" lon="101.388178">
        <ele>109.940735</ele>
        <time>2023-07-23T10:43:58.910Z</time>
      </trkpt>
      <trkpt lat="14.154539" lon="101.388552">
        <ele>108.452495</ele>
        <time>2023-07-23T10:44:10.216Z</time>
      </trkpt>
      <trkpt lat="14.154533" lon="101.389634">
        <ele>104.055300</ele>
        <time>2023-07-23T10:44:35.207Z</time>
      </trkpt>
      <trkpt lat="14.154511" lon="101.389993">
        <ele>101.784820</ele>
        <time>2023-07-23T10:44:43.200Z</time>
      </trkpt>
      <trkpt lat="14.154616" lon="101.390222">
        <ele>100.185946</ele>
        <time>2023-07-23T10:44:48.828Z</time>
      </trkpt>
      <trkpt lat="14.155182" lon="101.390336">
        <ele>96.431965</ele>
        <time>2023-07-23T10:45:02.077Z</time>
      </trkpt>
      <trkpt lat="14.155697" lon="101.390315">
        <ele>92.975091</ele>
        <time>2023-07-23T10:45:13.856Z</time>
      </trkpt>
      <trkpt lat="14.156042" lon="101.390199">
        <ele>90.315242</ele>
        <time>2023-07-23T10:45:22.038Z</time>
      </trkpt>
      <trkpt lat="14.156394" lon="101.390180">
        <ele>87.731555</ele>
        <time>2023-07-23T10:45:29.965Z</time>
      </trkpt>
      <trkpt lat="14.156673" lon="101.390273">
        <ele>85.582322</ele>
        <time>2023-07-23T10:45:36.538Z</time>
      </trkpt>
      <trkpt lat="14.157002" lon="101.390582">
        <ele>82.320597</ele>
        <time>2023-07-23T10:45:46.573Z</time>
      </trkpt>
      <trkpt lat="14.157004" lon="101.391004">
        <ele>79.690340</ele>
        <time>2023-07-23T10:45:55.817Z</time>
      </trkpt>
      <trkpt lat="14.157160" lon="101.391299">
        <ele>77.940945</ele>
        <time>2023-07-23T10:46:03.270Z</time>
      </trkpt>
      <trkpt lat="14.157222" lon="101.391590">
        <ele>76.389791</ele>
        <time>2023-07-23T10:46:09.979Z</time>
      </trkpt>
      <trkpt lat="14.157067" lon="101.391723">
        <ele>75.307164</ele>
        <time>2023-07-23T10:46:14.721Z</time>
      </trkpt>
      <trkpt lat="14.156937" lon="101.391953">
        <ele>73.921141</ele>
        <time>2023-07-23T10:46:20.928Z</time>
      </trkpt>
      <trkpt lat="14.156958" lon="101.392265">
        <ele>72.292889</ele>
        <time>2023-07-23T10:46:28.454Z</time>
      </trkpt>
      <trkpt lat="14.156965" lon="101.392357">
        <ele>71.812443</ele>
        <time>2023-07-23T10:46:30.713Z</time>
      </trkpt>
      <trkpt lat="14.157101" lon="101.392837">
        <ele>70.504099</ele>
        <time>2023-07-23T10:46:43.461Z</time>
      </trkpt>
      <trkpt lat="14.157293" lon="101.393261">
        <ele>69.787645</ele>
        <time>2023-07-23T10:46:56.017Z</time>
      </trkpt>
      <trkpt lat="14.156136" lon="101.393801">
        <ele>67.989604</ele>
        <time>2023-07-23T10:47:33.861Z</time>
      </trkpt>
      <trkpt lat="14.155782" lon="101.393885">
        <ele>67.698181</ele>
        <time>2023-07-23T10:47:44.876Z</time>
      </trkpt>
      <trkpt lat="14.155357" lon="101.393829">
        <ele>67.354445</ele>
        <time>2023-07-23T10:47:57.756Z</time>
      </trkpt>
      <trkpt lat="14.155121" lon="101.393875">
        <ele>67.161758</ele>
        <time>2023-07-23T10:48:04.876Z</time>
      </trkpt>
      <trkpt lat="14.154940" lon="101.394436">
        <ele>66.670783</ele>
        <time>2023-07-23T10:48:21.717Z</time>
      </trkpt>
      <trkpt lat="14.154723" lon="101.394828">
        <ele>66.134261</ele>
        <time>2023-07-23T10:48:34.286Z</time>
      </trkpt>
      <trkpt lat="14.154659" lon="101.395164">
        <ele>65.727254</ele>
        <time>2023-07-23T10:48:43.606Z</time>
      </trkpt>
      <trkpt lat="14.154569" lon="101.395417">
        <ele>65.406936</ele>
        <time>2023-07-23T10:48:50.869Z</time>
      </trkpt>
      <trkpt lat="14.154333" lon="101.395585">
        <ele>65.055414</ele>
        <time>2023-07-23T10:48:58.937Z</time>
      </trkpt>
      <trkpt lat="14.154161" lon="101.395837">
        <ele>64.689117</ele>
        <time>2023-07-23T10:49:07.574Z</time>
      </trkpt>
      <trkpt lat="14.154125" lon="101.396070">
        <ele>64.525909</ele>
        <time>2023-07-23T10:49:14.583Z</time>
      </trkpt>
      <trkpt lat="14.153953" lon="101.396229">
        <ele>64.468390</ele>
        <time>2023-07-23T10:49:21.671Z</time>
      </trkpt>
      <trkpt lat="14.153736" lon="101.396360">
        <ele>64.405777</ele>
        <time>2023-07-23T10:49:29.407Z</time>
      </trkpt>
      <trkpt lat="14.153672" lon="101.396453">
        <ele>64.378240</ele>
        <time>2023-07-23T10:49:32.851Z</time>
      </trkpt>
      <trkpt lat="14.153473" lon="101.396621">
        <ele>64.314201</ele>
        <time>2023-07-23T10:49:40.834Z</time>
      </trkpt>
      <trkpt lat="14.153165" lon="101.396724">
        <ele>64.233572</ele>
        <time>2023-07-23T10:49:51.024Z</time>
      </trkpt>
      <trkpt lat="14.152884" lon="101.396892">
        <ele>64.152691</ele>
        <time>2023-07-23T10:50:01.460Z</time>
      </trkpt>
      <trkpt lat="14.152773" lon="101.397096">
        <ele>64.112038</ele>
        <time>2023-07-23T10:50:08.808Z</time>
      </trkpt>
      <trkpt lat="14.152541" lon="101.397251">
        <ele>64.136374</ele>
        <time>2023-07-23T10:50:17.739Z</time>
      </trkpt>
      <trkpt lat="14.152434" lon="101.397448">
        <ele>64.155649</ele>
        <time>2023-07-23T10:50:25.083Z</time>
      </trkpt>
      <trkpt lat="14.152088" lon="101.397830">
        <ele>64.200272</ele>
        <time>2023-07-23T10:50:41.352Z</time>
      </trkpt>
      <trkpt lat="14.151863" lon="101.397913">
        <ele>64.221309</ele>
        <time>2023-07-23T10:50:49.053Z</time>
      </trkpt>
      <trkpt lat="14.151693" lon="101.397879">
        <ele>64.236554</ele>
        <time>2023-07-23T10:50:54.428Z</time>
      </trkpt>
      <trkpt lat="14.151077" lon="101.397633">
        <ele>64.554395</ele>
        <time>2023-07-23T10:51:15.448Z</time>
      </trkpt>
      <trkpt lat="14.150892" lon="101.397506">
        <ele>64.752487</ele>
        <time>2023-07-23T10:51:23.119Z</time>
      </trkpt>
      <trkpt lat="14.150628" lon="101.396949">
        <ele>65.288338</ele>
        <time>2023-07-23T10:51:44.425Z</time>
      </trkpt>
      <trkpt lat="14.150545" lon="101.396625">
        <ele>65.577980</ele>
        <time>2023-07-23T10:51:56.627Z</time>
      </trkpt>
      <trkpt lat="14.150384" lon="101.396514">
        <ele>65.750602</ele>
        <time>2023-07-23T10:52:04.465Z</time>
      </trkpt>
      <trkpt lat="14.150067" lon="101.396379">
        <ele>66.208129</ele>
        <time>2023-07-23T10:52:18.792Z</time>
      </trkpt>
      <trkpt lat="14.149965" lon="101.396413">
        <ele>66.381324</ele>
        <time>2023-07-23T10:52:23.221Z</time>
      </trkpt>
      <trkpt lat="14.149714" lon="101.396755">
        <ele>67.053291</ele>
        <time>2023-07-23T10:52:40.342Z</time>
      </trkpt>
      <trkpt lat="14.149584" lon="101.396863">
        <ele>67.323004</ele>
        <time>2023-07-23T10:52:47.158Z</time>
      </trkpt>
      <trkpt lat="14.149478" lon="101.397019">
        <ele>67.621436</ele>
        <time>2023-07-23T10:52:54.459Z</time>
      </trkpt>
      <trkpt lat="14.149272" lon="101.396854">
        <ele>68.042861</ele>
        <time>2023-07-23T10:53:04.711Z</time>
      </trkpt>
      <trkpt lat="14.149138" lon="101.396781">
        <ele>68.287713</ele>
        <time>2023-07-23T10:53:10.506Z</time>
      </trkpt>
      <trkpt lat="14.149099" lon="101.396639">
        <ele>68.518931</ele>
        <time>2023-07-23T10:53:16.019Z</time>
      </trkpt>
      <trkpt lat="14.149032" lon="101.396537">
        <ele>68.711945</ele>
        <time>2023-07-23T10:53:20.525Z</time>
      </trkpt>
      <trkpt lat="14.149036" lon="101.396383">
        <ele>68.979320</ele>
        <time>2023-07-23T10:53:26.245Z</time>
      </trkpt>
      <trkpt lat="14.149115" lon="101.396244">
        <ele>69.268680</ele>
        <time>2023-07-23T10:53:32.251Z</time>
      </trkpt>
      <trkpt lat="14.149123" lon="101.395858">
        <ele>69.962080</ele>
        <time>2023-07-23T10:53:47.069Z</time>
      </trkpt>
      <trkpt lat="14.149083" lon="101.395663">
        <ele>70.320043</ele>
        <time>2023-07-23T10:53:54.976Z</time>
      </trkpt>
      <trkpt lat="14.149111" lon="101.395427">
        <ele>70.747051</ele>
        <time>2023-07-23T10:54:04.473Z</time>
      </trkpt>
      <trkpt lat="14.149213" lon="101.395273">
        <ele>71.081993</ele>
        <time>2023-07-23T10:54:11.991Z</time>
      </trkpt>
      <trkpt lat="14.149166" lon="101.395053">
        <ele>71.486581</ele>
        <time>2023-07-23T10:54:20.968Z</time>
      </trkpt>
      <trkpt lat="14.149304" lon="101.394879">
        <ele>71.890294</ele>
        <time>2023-07-23T10:54:30.318Z</time>
      </trkpt>
      <trkpt lat="14.149430" lon="101.394882">
        <ele>72.139440</ele>
        <time>2023-07-23T10:54:35.789Z</time>
      </trkpt>
      <trkpt lat="14.149678" lon="101.394578">
        <ele>73.517946</ele>
        <time>2023-07-23T10:54:53.032Z</time>
      </trkpt>
      <trkpt lat="14.149745" lon="101.394399">
        <ele>74.183724</ele>
        <time>2023-07-23T10:55:01.677Z</time>
      </trkpt>
      <trkpt lat="14.149694" lon="101.394220">
        <ele>74.831090</ele>
        <time>2023-07-23T10:55:10.197Z</time>
      </trkpt>
      <trkpt lat="14.149753" lon="101.394069">
        <ele>75.395981</ele>
        <time>2023-07-23T10:55:17.881Z</time>
      </trkpt>
      <trkpt lat="14.149737" lon="101.393903">
        <ele>75.974820</ele>
        <time>2023-07-23T10:55:25.934Z</time>
      </trkpt>
      <trkpt lat="14.149797" lon="101.393704">
        <ele>76.697938</ele>
        <time>2023-07-23T10:55:36.333Z</time>
      </trkpt>
      <trkpt lat="14.150096" lon="101.393220">
        <ele>78.736253</ele>
        <time>2023-07-23T10:56:06.922Z</time>
      </trkpt>
      <trkpt lat="14.150203" lon="101.393126">
        <ele>79.401212</ele>
        <time>2023-07-23T10:56:14.965Z</time>
      </trkpt>
      <trkpt lat="14.150226" lon="101.392996">
        <ele>80.007401</ele>
        <time>2023-07-23T10:56:22.471Z</time>
      </trkpt>
      <trkpt lat="14.150191" lon="101.392890">
        <ele>80.521069</ele>
        <time>2023-07-23T10:56:28.795Z</time>
      </trkpt>
      <trkpt lat="14.150242" lon="101.392773">
        <ele>81.109515</ele>
        <time>2023-07-23T10:56:36.080Z</time>
      </trkpt>
      <trkpt lat="14.150108" lon="101.392435">
        <ele>82.784596</ele>
        <time>2023-07-23T10:56:56.489Z</time>
      </trkpt>
      <trkpt lat="14.150069" lon="101.391939">
        <ele>85.067347</ele>
        <time>2023-07-23T10:57:23.194Z</time>
      </trkpt>
      <trkpt lat="14.150151" lon="101.391785">
        <ele>85.873288</ele>
        <time>2023-07-23T10:57:32.395Z</time>
      </trkpt>
      <trkpt lat="14.150132" lon="101.391618">
        <ele>86.644616</ele>
        <time>2023-07-23T10:57:40.987Z</time>
      </trkpt>
      <trkpt lat="14.150033" lon="101.391431">
        <ele>87.609184</ele>
        <time>2023-07-23T10:57:51.851Z</time>
      </trkpt>
      <trkpt lat="14.149919" lon="101.391029">
        <ele>89.487419</ele>
        <time>2023-07-23T10:58:13.077Z</time>
      </trkpt>
      <trkpt lat="14.149998" lon="101.390927">
        <ele>90.072827</ele>
        <time>2023-07-23T10:58:19.682Z</time>
      </trkpt>
      <trkpt lat="14.150080" lon="101.390748">
        <ele>90.960604</ele>
        <time>2023-07-23T10:58:29.972Z</time>
      </trkpt>
      <trkpt lat="14.150207" lon="101.390626">
        <ele>91.763273</ele>
        <time>2023-07-23T10:58:39.177Z</time>
      </trkpt>
      <trkpt lat="14.150364" lon="101.390390">
        <ele>93.046712</ele>
        <time>2023-07-23T10:58:54.389Z</time>
      </trkpt>
      <trkpt lat="14.150490" lon="101.390293">
        <ele>93.773874</ele>
        <time>2023-07-23T10:59:03.111Z</time>
      </trkpt>
      <trkpt lat="14.150648" lon="101.390000">
        <ele>95.277309</ele>
        <time>2023-07-23T10:59:21.679Z</time>
      </trkpt>
      <trkpt lat="14.150573" lon="101.389898">
        <ele>96.065587</ele>
        <time>2023-07-23T10:59:29.056Z</time>
      </trkpt>
      <trkpt lat="14.150451" lon="101.389825">
        <ele>97.008478</ele>
        <time>2023-07-23T10:59:37.581Z</time>
      </trkpt>
      <trkpt lat="14.150479" lon="101.389719">
        <ele>97.720614</ele>
        <time>2023-07-23T10:59:44.039Z</time>
      </trkpt>
      <trkpt lat="14.150447" lon="101.389536">
        <ele>98.925965</ele>
        <time>2023-07-23T10:59:55.404Z</time>
      </trkpt>
      <trkpt lat="14.150321" lon="101.389423">
        <ele>100.042200</ele>
        <time>2023-07-23T11:00:06.201Z</time>
      </trkpt>
      <trkpt lat="14.150159" lon="101.389341">
        <ele>101.248562</ele>
        <time>2023-07-23T11:00:18.299Z</time>
      </trkpt>
      <trkpt lat="14.150062" lon="101.389344">
        <ele>101.897289</ele>
        <time>2023-07-23T11:00:24.891Z</time>
      </trkpt>
      <trkpt lat="14.149769" lon="101.389353">
        <ele>103.856832</ele>
        <time>2023-07-23T11:00:45.266Z</time>
      </trkpt>
      <trkpt lat="14.149458" lon="101.389284">
        <ele>105.983401</ele>
        <time>2023-07-23T11:01:07.557Z</time>
      </trkpt>
      <trkpt lat="14.149292" lon="101.389073">
        <ele>107.664573</ele>
        <time>2023-07-23T11:01:25.879Z</time>
      </trkpt>
      <trkpt lat="14.149055" lon="101.388654">
        <ele>110.090291</ele>
        <time>2023-07-23T11:01:57.009Z</time>
      </trkpt>
      <trkpt lat="14.148902" lon="101.388601">
        <ele>110.922656</ele>
        <time>2023-07-23T11:02:07.169Z</time>
      </trkpt>
      <trkpt lat="14.148843" lon="101.388513">
        <ele>111.457665</ele>
        <time>2023-07-23T11:02:13.543Z</time>
      </trkpt>
      <trkpt lat="14.148823" lon="101.388334">
        <ele>112.358712</ele>
        <time>2023-07-23T11:02:23.841Z</time>
      </trkpt>
      <trkpt lat="14.148776" lon="101.388236">
        <ele>112.905446</ele>
        <time>2023-07-23T11:02:29.881Z</time>
      </trkpt>
      <trkpt lat="14.148243" lon="101.388126">
        <ele>115.708702</ele>
        <time>2023-07-23T11:02:58.194Z</time>
      </trkpt>
      <trkpt lat="14.148090" lon="101.388001">
        <ele>116.673797</ele>
        <time>2023-07-23T11:03:07.325Z</time>
      </trkpt>
      <trkpt lat="14.148074" lon="101.387801">
        <ele>116.756967</ele>
        <time>2023-07-23T11:03:15.851Z</time>
      </trkpt>
      <trkpt lat="14.147920" lon="101.387789">
        <ele>116.822975</ele>
        <time>2023-07-23T11:03:22.250Z</time>
      </trkpt>
      <trkpt lat="14.147818" lon="101.387565">
        <ele>116.925537</ele>
        <time>2023-07-23T11:03:31.614Z</time>
      </trkpt>
      <trkpt lat="14.147695" lon="101.387395">
        <ele>117.013444</ele>
        <time>2023-07-23T11:03:39.210Z</time>
      </trkpt>
      <trkpt lat="14.147617" lon="101.387208">
        <ele>117.097811</ele>
        <time>2023-07-23T11:03:46.245Z</time>
      </trkpt>
      <trkpt lat="14.147222" lon="101.386578">
        <ele>117.408736</ele>
        <time>2023-07-23T11:04:09.945Z</time>
      </trkpt>
      <trkpt lat="14.146741" lon="101.386228">
        <ele>114.652891</ele>
        <time>2023-07-23T11:04:24.404Z</time>
      </trkpt>
      <trkpt lat="14.146647" lon="101.386094">
        <ele>113.790964</ele>
        <time>2023-07-23T11:04:28.089Z</time>
      </trkpt>
      <trkpt lat="14.146631" lon="101.385882">
        <ele>112.682778</ele>
        <time>2023-07-23T11:04:32.953Z</time>
      </trkpt>
      <trkpt lat="14.146505" lon="101.385768">
        <ele>111.781913</ele>
        <time>2023-07-23T11:04:36.741Z</time>
      </trkpt>
      <trkpt lat="14.146280" lon="101.385663">
        <ele>110.454597</ele>
        <time>2023-07-23T11:04:42.558Z</time>
      </trkpt>
      <trkpt lat="14.146119" lon="101.385526">
        <ele>109.332764</ele>
        <time>2023-07-23T11:04:47.294Z</time>
      </trkpt>
      <trkpt lat="14.145968" lon="101.385569">
        <ele>108.490839</ele>
        <time>2023-07-23T11:04:50.983Z</time>
      </trkpt>
      <trkpt lat="14.145854" lon="101.385630">
        <ele>107.800579</ele>
        <time>2023-07-23T11:04:53.816Z</time>
      </trkpt>
      <trkpt lat="14.145841" lon="101.385669">
        <ele>107.572433</ele>
        <time>2023-07-23T11:04:54.777Z</time>
      </trkpt>
      <trkpt lat="14.145731" lon="101.386005">
        <ele>105.593063</ele>
        <time>2023-07-23T11:05:02.640Z</time>
      </trkpt>
      <trkpt lat="14.145703" lon="101.386217">
        <ele>104.398869</ele>
        <time>2023-07-23T11:05:07.534Z</time>
      </trkpt>
      <trkpt lat="14.145775" lon="101.386451">
        <ele>103.028631</ele>
        <time>2023-07-23T11:05:12.931Z</time>
      </trkpt>
      <trkpt lat="14.145731" lon="101.386583">
        <ele>102.249564</ele>
        <time>2023-07-23T11:05:16.041Z</time>
      </trkpt>
      <trkpt lat="14.145658" lon="101.386675">
        <ele>101.586062</ele>
        <time>2023-07-23T11:05:18.557Z</time>
      </trkpt>
      <trkpt lat="14.145720" lon="101.386936">
        <ele>100.086225</ele>
        <time>2023-07-23T11:05:24.587Z</time>
      </trkpt>
      <trkpt lat="14.145692" lon="101.387260">
        <ele>98.270665</ele>
        <time>2023-07-23T11:05:32.377Z</time>
      </trkpt>
      <trkpt lat="14.145753" lon="101.387347">
        <ele>97.671435</ele>
        <time>2023-07-23T11:05:35.103Z</time>
      </trkpt>
      <trkpt lat="14.145752" lon="101.387463">
        <ele>97.264639</ele>
        <time>2023-07-23T11:05:38.072Z</time>
      </trkpt>
      <trkpt lat="14.145695" lon="101.387550">
        <ele>97.035680</ele>
        <time>2023-07-23T11:05:40.849Z</time>
      </trkpt>
      <trkpt lat="14.145620" lon="101.387788">
        <ele>96.489973</ele>
        <time>2023-07-23T11:05:47.511Z</time>
      </trkpt>
      <trkpt lat="14.145604" lon="101.388014">
        <ele>95.995839</ele>
        <time>2023-07-23T11:05:53.642Z</time>
      </trkpt>
      <trkpt lat="14.145692" lon="101.388434">
        <ele>95.058840</ele>
        <time>2023-07-23T11:06:05.565Z</time>
      </trkpt>
      <trkpt lat="14.145666" lon="101.388543">
        <ele>94.814066</ele>
        <time>2023-07-23T11:06:08.978Z</time>
      </trkpt>
      <trkpt lat="14.145604" lon="101.388620">
        <ele>94.595816</ele>
        <time>2023-07-23T11:06:11.770Z</time>
      </trkpt>
      <trkpt lat="14.145642" lon="101.388818">
        <ele>94.155676</ele>
        <time>2023-07-23T11:06:17.062Z</time>
      </trkpt>
      <trkpt lat="14.145628" lon="101.388926">
        <ele>93.918074</ele>
        <time>2023-07-23T11:06:20.030Z</time>
      </trkpt>
      <trkpt lat="14.145568" lon="101.388987">
        <ele>93.728601</ele>
        <time>2023-07-23T11:06:22.359Z</time>
      </trkpt>
      <trkpt lat="14.145546" lon="101.389048">
        <ele>93.586680</ele>
        <time>2023-07-23T11:06:23.969Z</time>
      </trkpt>
      <trkpt lat="14.145689" lon="101.389296">
        <ele>92.758327</ele>
        <time>2023-07-23T11:06:31.504Z</time>
      </trkpt>
      <trkpt lat="14.145713" lon="101.389430">
        <ele>92.319138</ele>
        <time>2023-07-23T11:06:34.625Z</time>
      </trkpt>
      <trkpt lat="14.145807" lon="101.389600">
        <ele>91.688404</ele>
        <time>2023-07-23T11:06:39.418Z</time>
      </trkpt>
      <trkpt lat="14.145750" lon="101.389687">
        <ele>91.349997</ele>
        <time>2023-07-23T11:06:41.913Z</time>
      </trkpt>
      <trkpt lat="14.145754" lon="101.389768">
        <ele>91.088595</ele>
        <time>2023-07-23T11:06:43.772Z</time>
      </trkpt>
      <trkpt lat="14.145800" lon="101.389869">
        <ele>90.728952</ele>
        <time>2023-07-23T11:06:46.557Z</time>
      </trkpt>
      <trkpt lat="14.145831" lon="101.390002">
        <ele>90.288081</ele>
        <time>2023-07-23T11:06:49.997Z</time>
      </trkpt>
      <trkpt lat="14.145699" lon="101.390200">
        <ele>89.513653</ele>
        <time>2023-07-23T11:06:55.814Z</time>
      </trkpt>
      <trkpt lat="14.145640" lon="101.390329">
        <ele>89.053957</ele>
        <time>2023-07-23T11:06:59.514Z</time>
      </trkpt>
      <trkpt lat="14.145658" lon="101.390479">
        <ele>88.566817</ele>
        <time>2023-07-23T11:07:03.191Z</time>
      </trkpt>
      <trkpt lat="14.145731" lon="101.390612">
        <ele>88.074249</ele>
        <time>2023-07-23T11:07:07.346Z</time>
      </trkpt>
      <trkpt lat="14.145699" lon="101.390722">
        <ele>87.704106</ele>
        <time>2023-07-23T11:07:10.239Z</time>
      </trkpt>
      <trkpt lat="14.145646" lon="101.390793">
        <ele>87.415319</ele>
        <time>2023-07-23T11:07:12.413Z</time>
      </trkpt>
      <trkpt lat="14.145508" lon="101.390812">
        <ele>86.988513</ele>
        <time>2023-07-23T11:07:16.182Z</time>
      </trkpt>
      <trkpt lat="14.145433" lon="101.390906">
        <ele>86.627993</ele>
        <time>2023-07-23T11:07:19.334Z</time>
      </trkpt>
      <trkpt lat="14.145436" lon="101.390999">
        <ele>86.352409</ele>
        <time>2023-07-23T11:07:21.543Z</time>
      </trkpt>
      <trkpt lat="14.145789" lon="101.391368">
        <ele>84.817255</ele>
        <time>2023-07-23T11:07:34.211Z</time>
      </trkpt>
      <trkpt lat="14.145724" lon="101.391614">
        <ele>84.062132</ele>
        <time>2023-07-23T11:07:40.554Z</time>
      </trkpt>
      <trkpt lat="14.145721" lon="101.391885">
        <ele>83.259479</ele>
        <time>2023-07-23T11:07:47.472Z</time>
      </trkpt>
      <trkpt lat="14.145797" lon="101.391963">
        <ele>82.931997</ele>
        <time>2023-07-23T11:07:50.202Z</time>
      </trkpt>
      <trkpt lat="14.145810" lon="101.392140">
        <ele>82.406288</ele>
        <time>2023-07-23T11:07:54.717Z</time>
      </trkpt>
      <trkpt lat="14.145287" lon="101.394205">
        <ele>77.970803</ele>
        <time>2023-07-23T11:08:51.119Z</time>
      </trkpt>
      <trkpt lat="14.145292" lon="101.395176">
        <ele>76.778937</ele>
        <time>2023-07-23T11:09:17.671Z</time>
      </trkpt>
      <trkpt lat="14.145573" lon="101.395734">
        <ele>76.007168</ele>
        <time>2023-07-23T11:09:35.179Z</time>
      </trkpt>
      <trkpt lat="14.145765" lon="101.395911">
        <ele>75.930944</ele>
        <time>2023-07-23T11:09:43.147Z</time>
      </trkpt>
      <trkpt lat="14.145778" lon="101.396080">
        <ele>76.076604</ele>
        <time>2023-07-23T11:09:48.152Z</time>
      </trkpt>
      <trkpt lat="14.145651" lon="101.396218">
        <ele>76.240071</ele>
        <time>2023-07-23T11:09:55.085Z</time>
      </trkpt>
      <trkpt lat="14.145613" lon="101.396335">
        <ele>76.346086</ele>
        <time>2023-07-23T11:09:59.802Z</time>
      </trkpt>
      <trkpt lat="14.145671" lon="101.396781">
        <ele>76.732717</ele>
        <time>2023-07-23T11:10:16.338Z</time>
      </trkpt>
      <trkpt lat="14.145524" lon="101.397014">
        <ele>76.971552</ele>
        <time>2023-07-23T11:10:26.850Z</time>
      </trkpt>
      <trkpt lat="14.145517" lon="101.397113">
        <ele>77.056838</ele>
        <time>2023-07-23T11:10:30.338Z</time>
      </trkpt>
      <trkpt lat="14.145537" lon="101.397255">
        <ele>77.180124</ele>
        <time>2023-07-23T11:10:35.474Z</time>
      </trkpt>
      <trkpt lat="14.145671" lon="101.397474">
        <ele>77.402616</ele>
        <time>2023-07-23T11:10:44.752Z</time>
      </trkpt>
      <trkpt lat="14.145781" lon="101.397563">
        <ele>77.518638</ele>
        <time>2023-07-23T11:10:49.974Z</time>
      </trkpt>
      <trkpt lat="14.145898" lon="101.397602">
        <ele>77.619406</ele>
        <time>2023-07-23T11:10:55.573Z</time>
      </trkpt>
      <trkpt lat="14.145874" lon="101.397860">
        <ele>77.825372</ele>
        <time>2023-07-23T11:11:05.972Z</time>
      </trkpt>
      <trkpt lat="14.146049" lon="101.398515">
        <ele>78.365276</ele>
        <time>2023-07-23T11:11:33.520Z</time>
      </trkpt>
      <trkpt lat="14.146078" lon="101.398705">
        <ele>78.518122</ele>
        <time>2023-07-23T11:11:40.524Z</time>
      </trkpt>
      <trkpt lat="14.146172" lon="101.398840">
        <ele>78.650196</ele>
        <time>2023-07-23T11:11:45.933Z</time>
      </trkpt>
      <trkpt lat="14.146380" lon="101.399028">
        <ele>78.876859</ele>
        <time>2023-07-23T11:11:54.212Z</time>
      </trkpt>
      <trkpt lat="14.146463" lon="101.399066">
        <ele>78.645391</ele>
        <time>2023-07-23T11:11:56.708Z</time>
      </trkpt>
      <trkpt lat="14.146552" lon="101.399221">
        <ele>77.998838</ele>
        <time>2023-07-23T11:12:01.274Z</time>
      </trkpt>
      <trkpt lat="14.146749" lon="101.399344">
        <ele>77.146417</ele>
        <time>2023-07-23T11:12:07.351Z</time>
      </trkpt>
      <trkpt lat="14.146822" lon="101.399607">
        <ele>76.164537</ele>
        <time>2023-07-23T11:12:14.016Z</time>
      </trkpt>
      <trkpt lat="14.146838" lon="101.399838">
        <ele>75.333313</ele>
        <time>2023-07-23T11:12:19.460Z</time>
      </trkpt>
      <trkpt lat="14.146786" lon="101.400101">
        <ele>74.369922</ele>
        <time>2023-07-23T11:12:25.867Z</time>
      </trkpt>
      <trkpt lat="14.146822" lon="101.400315">
        <ele>73.590354</ele>
        <time>2023-07-23T11:12:30.945Z</time>
      </trkpt>
      <trkpt lat="14.146843" lon="101.400664">
        <ele>72.335304</ele>
        <time>2023-07-23T11:12:39.104Z</time>
      </trkpt>
      <trkpt lat="14.146761" lon="101.401346">
        <ele>70.026204</ele>
        <time>2023-07-23T11:12:55.307Z</time>
      </trkpt>
      <trkpt lat="14.146718" lon="101.401523">
        <ele>69.414809</ele>
        <time>2023-07-23T11:12:59.622Z</time>
      </trkpt>
      <trkpt lat="14.146710" lon="101.401555">
        <ele>69.304082</ele>
        <time>2023-07-23T11:13:00.432Z</time>
      </trkpt>
      <trkpt lat="14.146737" lon="101.401810">
        <ele>68.444587</ele>
        <time>2023-07-23T11:13:06.754Z</time>
      </trkpt>
      <trkpt lat="14.146813" lon="101.402036">
        <ele>67.643095</ele>
        <time>2023-07-23T11:13:12.776Z</time>
      </trkpt>
      <trkpt lat="14.146897" lon="101.402421">
        <ele>66.320844</ele>
        <time>2023-07-23T11:13:23.175Z</time>
      </trkpt>
      <trkpt lat="14.146790" lon="101.402297">
        <ele>66.023068</ele>
        <time>2023-07-23T11:13:27.737Z</time>
      </trkpt>
      <trkpt lat="14.146790" lon="101.402297">
        <ele>66.023068</ele>
        <time>2023-07-23T11:13:27.767Z</time>
      </trkpt>
      <trkpt lat="14.147220" lon="101.402021">
        <ele>66.023068</ele>
        <time>2023-07-23T11:13:49.428Z</time>
      </trkpt>
      <trkpt lat="14.147650" lon="101.401745">
        <ele>66.023068</ele>
        <time>2023-07-23T11:14:11.100Z</time>
      </trkpt>
      <trkpt lat="14.147664" lon="101.401831">
        <ele>66.023068</ele>
        <time>2023-07-23T11:14:13.537Z</time>
      </trkpt>
      <trkpt lat="14.147740" lon="101.402037">
        <ele>66.023068</ele>
        <time>2023-07-23T11:14:20.347Z</time>
      </trkpt>
      <trkpt lat="14.147759" lon="101.402088">
        <ele>66.023068</ele>
        <time>2023-07-23T11:14:21.907Z</time>
      </trkpt>
    </trkseg>
  </trk>
</gpx>